Abraham, West Virginia
Current Conditions -  °F | °C
As of 5:51 PM on Tuesday 27 Jan 2015 (Local Time) from KBKW Reporting Station
Overcast Overcast  
Wind Chill:   Ceiling: 2000
Heat Index: 18°   Visibility: 9mi
Dew Point: 10°   Wind: 12mph
Humidity: 71%   Direction: 330°NNW
Pressure: 29.95"   Gusts: NA
Location:  37.6906°N, 81.1704°W
Report Text: KBKW 272251Z AUTO 33010KT 9SM OVC020 M08/M12 A2995 RMK AO2 SLP189 T10781122
Loading
Personal Weather Stations






























Interactive Weather Map New forecast layout! Learn more

10-Day Weather Forecast

Advertisements
Track Severe Weather on mobile